Time;durP1;ratioP1;P1;durP2;ratioP2;P2;SDS_P1;SDS_P2;PMS_P1;PMS_P2;Temp;Humidity;BMP_temperature;BMP_pressure;BME280_temperature;BME280_humidity;BME280_pressure;Samples;Min_cycle;Max_cycle;Signal;HPM_P1;HPM_P2
2021/06/01 00:02:23;;;;;;;4.55;3.80;;;;;;;10.91;59.77;99880.28;4458637;32;21975;-95
2021/06/01 00:04:48;;;;;;;7.57;4.78;;;;;;;10.83;59.77;99877.88;4458192;32;20093;-94
2021/06/01 00:07:14;;;;;;;5.62;3.72;;;;;;;10.83;59.77;99887.44;4457511;32;20147;-94
2021/06/01 00:09:39;;;;;;;11.60;3.58;;;;;;;10.80;59.77;99874.53;4457345;32;20100;-95
2021/06/01 00:12:05;;;;;;;8.45;4.37;;;;;;;10.98;59.78;99876.56;4458235;32;20100;-93
2021/06/01 00:14:30;;;;;;;5.50;2.92;;;;;;;10.93;59.78;99878.47;4458234;32;20509;-95
2021/06/01 00:16:56;;;;;;;5.15;3.17;;;;;;;10.90;59.78;99876.81;4458434;32;20683;-95
2021/06/01 00:19:21;;;;;;;5.82;3.33;;;;;;;10.84;59.77;99870.94;4468539;32;20114;-96
2021/06/01 00:21:47;;;;;;;7.85;3.47;;;;;;;10.95;59.78;99863.66;4471308;32;20128;-93
2021/06/01 00:24:12;;;;;;;10.73;5.03;;;;;;;11.20;59.79;99866.31;4462760;32;20339;-93
2021/06/01 00:26:38;;;;;;;6.07;3.42;;;;;;;10.89;59.78;99875.12;4459223;32;20152;-94
2021/06/01 00:29:05;;;;;;;5.30;3.47;;;;;;;11.12;59.79;99869.19;4445282;32;20117;-93
2021/06/01 00:31:30;;;;;;;4.47;3.55;;;;;;;10.86;59.78;99869.13;4444903;32;20115;-95
2021/06/01 00:33:56;;;;;;;6.20;3.40;;;;;;;10.88;59.78;99877.75;4457476;32;20101;-94
2021/06/01 00:36:21;;;;;;;6.82;3.97;;;;;;;10.64;59.77;99874.13;4457250;32;20168;-93
2021/06/01 00:38:47;;;;;;;5.90;3.70;;;;;;;10.86;59.78;99874.34;4457513;32;20130;-94
2021/06/01 00:41:12;;;;;;;5.78;3.72;;;;;;;10.59;59.76;99873.44;4457274;32;20120;-93
2021/06/01 00:43:37;;;;;;;5.37;3.37;;;;;;;10.69;59.76;99877.47;4457028;32;20147;-95
2021/06/01 00:46:04;;;;;;;5.20;3.12;;;;;;;10.67;59.76;99871.47;4456844;32;20145;-92
2021/06/01 00:48:29;;;;;;;4.95;3.37;;;;;;;10.59;59.76;99874.28;4444428;32;20735;-93
2021/06/01 00:50:55;;;;;;;4.50;3.50;;;;;;;10.65;59.76;99868.06;4457158;32;20180;-94
2021/06/01 00:53:20;;;;;;;5.75;3.00;;;;;;;10.72;59.77;99882.59;4456802;32;20093;-93
2021/06/01 00:55:46;;;;;;;5.80;3.10;;;;;;;10.66;59.76;99880.19;4456784;32;20487;-93
2021/06/01 00:58:11;;;;;;;3.92;3.08;;;;;;;10.52;59.76;99879.72;4456429;32;20172;-92
2021/06/01 01:03:05;;;;;;;3.62;2.92;;;;;;;10.40;59.75;99875.72;4470083;32;20088;-93
2021/06/01 01:05:36;;;;;;;5.40;3.35;;;;;;;10.45;59.75;99876.47;4456113;32;20190;-92
2021/06/01 01:08:59;;;;;;;6.30;3.10;;;;;;;10.22;59.74;99873.69;4457429;32;20128;-93
2021/06/01 01:11:27;;;;;;;4.78;2.85;;;;;;;10.30;59.74;99874.28;4466882;32;20088;-93
2021/06/01 01:14:01;;;;;;;3.62;2.83;;;;;;;10.33;59.75;99879.41;4458890;32;20100;-93
2021/06/01 01:16:28;;;;;;;4.15;2.87;;;;;;;10.29;59.74;99875.19;4444519;32;20130;-95
2021/06/01 01:18:57;;;;;;;3.45;2.70;;;;;;;10.28;59.74;99876.94;4444314;32;20116;-93
2021/06/01 01:21:34;;;;;;;7.78;3.22;;;;;;;10.19;59.74;99868.53;4444811;32;20123;-94
2021/06/01 01:24:02;;;;;;;3.30;2.45;;;;;;;10.11;59.74;99871.31;4444572;32;20105;-95
2021/06/01 01:26:56;;;;;;;5.25;2.92;;;;;;;10.00;59.73;99874.25;4470085;32;20109;-94
2021/06/01 01:29:41;;;;;;;4.97;2.62;;;;;;;10.09;59.73;99873.13;4444585;32;20108;-93
2021/06/01 01:32:18;;;;;;;8.57;2.67;;;;;;;9.90;59.72;99877.97;4446570;32;20097;-95
2021/06/01 01:34:43;;;;;;;7.90;2.70;;;;;;;9.78;59.71;99879.16;4445186;32;20499;-94
2021/06/01 01:37:09;;;;;;;8.65;3.22;;;;;;;9.92;59.72;99870.13;4457210;32;20138;-94
2021/06/01 01:39:40;;;;;;;6.40;3.40;;;;;;;9.79;59.71;99877.41;4457445;32;20169;-94
2021/06/01 01:42:06;;;;;;;5.45;3.25;;;;;;;9.91;59.72;99866.66;4455733;32;20172;-92
2021/06/01 01:44:36;;;;;;;6.43;3.05;;;;;;;9.88;59.72;99869.34;4443169;32;20084;-93
2021/06/01 01:48:56;;;;;;;;;;;;;;;9.89;59.73;99865.00;4457278;32;20838;-94
2021/06/01 01:49:53;;;;;;;4.72;3.00;;;;;;;9.81;59.72;99873.03;4470265;32;20325;-93
2021/06/01 01:52:18;;;;;;;8.00;3.58;;;;;;;9.72;59.72;99866.34;4456325;32;20118;-93
2021/06/01 01:54:43;;;;;;;4.55;2.97;;;;;;;9.85;59.72;99874.66;4456998;32;20093;-94
2021/06/01 01:57:11;;;;;;;7.40;3.97;;;;;;;9.79;59.71;99867.88;4456804;32;20148;-93
2021/06/01 01:59:36;;;;;;;5.87;3.40;;;;;;;9.71;59.71;99867.25;4470270;32;20147;-95
2021/06/01 02:02:02;;;;;;;6.85;3.08;;;;;;;9.53;59.70;99871.16;4458072;32;20403;-93
2021/06/01 02:04:29;;;;;;;3.95;2.85;;;;;;;9.67;59.71;99869.94;4457421;32;20140;-93
2021/06/01 02:06:54;;;;;;;9.18;3.62;;;;;;;9.61;59.71;99860.56;4444600;32;20750;-93
2021/06/01 02:09:21;;;;;;;6.15;3.08;;;;;;;9.51;59.70;99859.09;4456562;32;20100;-93
2021/06/01 02:11:47;;;;;;;8.20;3.03;;;;;;;9.51;59.70;99867.75;4443243;32;20508;-94
2021/06/01 02:14:12;;;;;;;5.87;2.47;;;;;;;9.58;59.71;99865.84;4456388;32;20119;-92
2021/06/01 02:16:39;;;;;;;7.93;3.45;;;;;;;9.59;59.71;99871.87;4456261;32;20157;-94
2021/06/01 02:19:05;;;;;;;4.70;3.10;;;;;;;9.37;59.69;99877.63;4443661;32;20512;-90
2021/06/01 02:24:11;;;;;;;4.28;3.12;;;;;;;9.47;59.70;99876.53;4456037;32;20116;-93
2021/06/01 02:27:05;;;;;;;5.07;3.00;;;;;;;9.62;59.71;99869.22;4442665;32;20105;-92
2021/06/01 02:29:35;;;;;;;5.22;2.95;;;;;;;9.37;59.70;99881.97;4468191;32;20153;-95
2021/06/01 02:32:02;;;;;;;12.75;3.83;;;;;;;9.44;59.70;99876.56;4471224;32;20084;-96
2021/06/01 02:34:27;;;;;;;4.47;3.17;;;;;;;9.38;59.69;99878.47;4470464;32;20057;-96
2021/06/01 02:36:53;;;;;;;9.10;3.58;;;;;;;9.59;59.71;99871.87;4471857;32;20119;-96
2021/06/01 02:39:22;;;;;;;5.00;2.97;;;;;;;9.56;59.70;99877.16;4459033;32;20128;-96
2021/06/01 02:41:48;;;;;;;3.90;2.90;;;;;;;9.75;59.71;99874.06;4470558;32;20088;-96
2021/06/01 02:44:14;;;;;;;5.65;3.28;;;;;;;9.51;59.70;99875.56;4444873;32;20081;-95
2021/06/01 02:46:40;;;;;;;10.23;3.12;;;;;;;9.34;59.70;99872.50;4457475;32;20127;-96
2021/06/01 02:49:05;;;;;;;13.52;3.40;;;;;;;9.32;59.69;99863.91;4457731;32;20089;-95
2021/06/01 02:51:32;;;;;;;10.10;4.00;;;;;;;9.55;59.70;99865.91;4457910;32;20176;-96
2021/06/01 02:53:57;;;;;;;6.40;3.05;;;;;;;9.55;59.70;99863.31;4466510;32;20113;-92
2021/06/01 02:56:23;;;;;;;4.90;2.95;;;;;;;9.82;59.71;99856.53;4471968;32;20089;-90
2021/06/01 02:58:49;;;;;;;6.35;2.90;;;;;;;9.49;59.71;99853.94;4465536;32;20164;-94
2021/06/01 03:01:18;;;;;;;6.00;3.12;;;;;;;9.57;59.70;99858.09;4447999;32;20088;-93
2021/06/01 03:03:51;;;;;;;6.32;3.03;;;;;;;9.66;59.71;99857.84;4445827;32;20145;-94
2021/06/01 03:06:18;;;;;;;6.35;3.17;;;;;;;9.56;59.70;99859.84;4445840;32;20100;-92
2021/06/01 03:08:43;;;;;;;7.50;2.92;;;;;;;9.46;59.70;99863.53;4458631;32;20500;-94
2021/06/01 03:11:09;;;;;;;9.57;3.30;;;;;;;9.42;59.70;99861.91;4458878;32;20069;-94
2021/06/01 03:13:34;;;;;;;4.35;3.17;;;;;;;9.71;59.71;99864.63;4458428;32;20452;-93
2021/06/01 03:16:00;;;;;;;4.82;3.35;;;;;;;9.58;59.71;99867.59;4458793;32;20448;-93
2021/06/01 03:18:25;;;;;;;10.30;4.50;;;;;;;9.63;59.71;99868.31;4458343;32;20697;-93
2021/06/01 03:20:51;;;;;;;4.47;3.17;;;;;;;9.52;59.70;99872.06;4444401;32;20154;-93
2021/06/01 03:23:16;;;;;;;6.18;3.33;;;;;;;9.56;59.70;99864.19;4456452;32;20084;-94
2021/06/01 03:25:42;;;;;;;4.10;3.00;;;;;;;9.79;59.71;99874.81;4445321;32;20096;-95
2021/06/01 03:28:07;;;;;;;7.87;3.53;;;;;;;9.72;59.71;99875.88;4458038;32;20457;-94
2021/06/01 03:30:36;;;;;;;4.00;2.75;;;;;;;9.72;59.72;99874.13;4458213;32;20377;-94
2021/06/01 03:33:02;;;;;;;5.50;3.60;;;;;;;9.96;59.72;99871.78;4445190;32;20100;-94
2021/06/01 03:35:27;;;;;;;7.18;2.97;;;;;;;10.04;59.74;99869.81;4457439;32;20160;-93
2021/06/01 03:37:53;;;;;;;8.60;3.35;;;;;;;10.18;59.74;99866.81;4456235;32;20157;-93
2021/06/01 03:40:19;;;;;;;6.53;3.67;;;;;;;10.34;59.75;99863.75;4456702;32;20088;-92
2021/06/01 03:42:44;;;;;;;5.97;3.50;;;;;;;10.02;59.73;99859.44;4456691;32;20128;-93
2021/06/01 03:45:10;;;;;;;5.80;3.50;;;;;;;10.35;59.75;99862.00;4456558;32;20131;-92
2021/06/01 03:47:36;;;;;;;9.45;4.03;;;;;;;10.44;59.75;99864.34;4443451;32;20186;-92
2021/06/01 03:50:01;;;;;;;7.57;4.07;;;;;;;10.64;59.77;99864.56;4469076;32;21410;-92
2021/06/01 03:52:27;;;;;;;6.57;3.72;;;;;;;10.54;59.75;99865.78;4468714;32;20106;-91
2021/06/01 03:54:52;;;;;;;5.47;3.30;;;;;;;10.62;59.76;99866.38;4455821;32;20160;-90
2021/06/01 03:57:18;;;;;;;8.80;4.10;;;;;;;10.73;59.77;99864.31;4469615;32;22969;-93
2021/06/01 03:59:43;;;;;;;8.27;4.43;;;;;;;10.64;59.77;99869.78;4456078;32;20199;-90
2021/06/01 04:02:08;;;;;;;8.27;4.35;;;;;;;10.58;59.76;99872.59;4455100;32;20085;-91
2021/06/01 04:04:35;;;;;;;8.45;4.50;;;;;;;10.88;59.78;99869.94;4467830;32;20136;-90
2021/06/01 04:07:02;;;;;;;7.47;4.30;;;;;;;11.10;59.79;99862.28;4454878;32;20162;-89
2021/06/01 04:09:27;;;;;;;6.53;4.47;;;;;;;11.11;59.79;99864.84;4455921;32;20875;-92
2021/06/01 04:11:53;;;;;;;6.35;4.72;;;;;;;11.20;59.79;99864.56;4456491;32;20116;-92
2021/06/01 04:14:19;;;;;;;6.72;4.32;;;;;;;11.28;59.80;99856.47;4456359;32;20104;-91
2021/06/01 04:16:45;;;;;;;6.15;4.62;;;;;;;11.45;59.80;99862.00;4456007;32;20113;-92
2021/06/01 04:19:11;;;;;;;6.43;4.18;;;;;;;11.63;59.81;99856.16;4456618;32;20080;-92
2021/06/01 04:21:36;;;;;;;6.87;4.72;;;;;;;11.72;59.82;99860.19;4456872;32;20133;-95
2021/06/01 04:24:02;;;;;;;7.50;4.18;;;;;;;11.77;59.83;99855.66;4457732;32;20147;-93
2021/06/01 04:26:29;;;;;;;9.20;4.62;;;;;;;11.94;59.83;99855.09;4455966;32;20153;-91
2021/06/01 04:28:55;;;;;;;6.15;4.05;;;;;;;11.94;59.83;99860.31;4456461;32;20167;-91
2021/06/01 04:31:21;;;;;;;5.22;4.05;;;;;;;12.13;59.83;99855.28;4455971;32;20092;-90
2021/06/01 04:33:46;;;;;;;6.45;4.20;;;;;;;12.23;59.85;99852.28;4454868;32;20206;-90
2021/06/01 04:36:12;;;;;;;6.43;4.12;;;;;;;12.30;59.86;99850.28;4469266;32;20365;-90
2021/06/01 04:38:38;;;;;;;5.43;4.28;;;;;;;12.40;59.86;99851.66;4456946;32;20559;-91
2021/06/01 04:41:03;;;;;;;11.80;4.15;;;;;;;12.58;59.86;99852.72;4445013;32;20152;-91
2021/06/01 04:43:29;;;;;;;7.20;4.10;;;;;;;12.78;59.88;99854.56;4456654;32;20370;-91
2021/06/01 04:45:54;;;;;;;6.03;4.20;;;;;;;13.04;59.88;99856.13;4469034;32;20105;-91
2021/06/01 04:48:20;;;;;;;7.55;4.10;;;;;;;13.12;59.90;99854.91;4468448;32;20084;-91
2021/06/01 04:50:45;;;;;;;7.45;4.90;;;;;;;13.37;59.91;99853.94;4454765;32;20143;-92
2021/06/01 04:53:11;;;;;;;10.60;4.80;;;;;;;13.44;59.92;99850.13;4455528;32;20204;-92
2021/06/01 04:55:36;;;;;;;5.62;3.40;;;;;;;13.77;59.93;99855.72;4455943;32;20195;-93
2021/06/01 04:58:01;;;;;;;6.15;3.47;;;;;;;13.73;59.93;99852.38;4456156;32;20174;-93
2021/06/01 05:00:27;;;;;;;4.22;3.35;;;;;;;13.90;59.94;99843.78;4455820;32;20409;-93
2021/06/01 05:02:52;;;;;;;7.85;3.08;;;;;;;14.08;59.94;99848.19;4456633;32;20152;-93
2021/06/01 05:05:18;;;;;;;7.43;3.22;;;;;;;14.43;59.96;99849.25;4456794;32;20116;-94
2021/06/01 05:07:43;;;;;;;6.78;2.20;;;;;;;14.58;59.97;99847.69;4456545;32;20474;-93
2021/06/01 05:10:09;;;;;;;4.87;1.83;;;;;;;14.83;59.99;99839.50;4456596;32;20112;-94
2021/06/01 05:12:35;;;;;;;6.85;2.10;;;;;;;14.92;59.99;99853.97;4444642;32;20101;-93
2021/06/01 05:15:00;;;;;;;3.25;2.55;;;;;;;15.09;59.99;99842.63;4458070;32;20159;-94
2021/06/01 05:17:26;;;;;;;3.50;1.83;;;;;;;15.28;60.01;99844.28;4457346;32;20144;-94
2021/06/01 05:19:51;;;;;;;3.33;1.70;;;;;;;15.43;60.02;99847.91;4456943;32;20159;-94
2021/06/01 05:22:17;;;;;;;6.75;1.83;;;;;;;15.55;60.02;99842.03;4457010;32;20124;-93
2021/06/01 05:24:43;;;;;;;2.97;1.77;;;;;;;15.88;60.04;99846.53;4457138;32;20409;-94
2021/06/01 05:27:08;;;;;;;5.45;2.30;;;;;;;16.00;60.05;99843.25;4457273;32;20089;-95
2021/06/01 05:29:37;;;;;;;4.43;1.98;;;;;;;16.06;60.05;99848.16;4461990;32;20126;-93
2021/06/01 05:32:19;;;;;;;2.90;1.67;;;;;;;16.13;60.06;99857.44;4467716;32;113852;-94
2021/06/01 05:34:47;;;;;;;5.43;1.60;;;;;;;16.25;60.06;99859.38;4475169;32;20065;-94
2021/06/01 05:37:13;;;;;;;2.78;2.03;;;;;;;16.36;60.07;99850.09;4475794;32;20065;-94
2021/06/01 05:39:38;;;;;;;6.10;2.15;;;;;;;16.43;60.07;99851.47;4457565;32;20128;-93
2021/06/01 05:42:04;;;;;;;4.55;2.25;;;;;;;16.69;60.08;99865.81;4455642;32;20408;-93
2021/06/01 05:44:30;;;;;;;5.05;2.00;;;;;;;16.69;60.08;99858.78;4442495;32;20088;-92
2021/06/01 05:46:55;;;;;;;7.12;2.20;;;;;;;16.99;60.10;99856.22;4468396;32;20401;-92
2021/06/01 05:49:21;;;;;;;7.50;1.95;;;;;;;17.18;60.11;99856.03;4468358;32;20179;-93
2021/06/01 05:51:46;;;;;;;4.37;2.47;;;;;;;17.22;60.11;99852.28;4454742;32;22165;-93
2021/06/01 05:54:11;;;;;;;2.90;2.10;;;;;;;17.16;60.12;99860.53;4455562;32;20160;-94
2021/06/01 05:56:37;;;;;;;7.15;2.17;;;;;;;17.28;60.12;99859.00;4455438;32;20104;-93
2021/06/01 05:59:04;;;;;;;3.65;1.52;;;;;;;17.34;60.13;99861.25;4454928;32;20093;-93
2021/06/01 06:01:29;;;;;;;4.65;1.98;;;;;;;17.30;60.11;99860.59;4442969;32;20365;-93
2021/06/01 06:03:55;;;;;;;3.53;1.80;;;;;;;17.36;60.12;99868.12;4455201;32;20190;-93
2021/06/01 06:06:21;;;;;;;2.65;1.70;;;;;;;17.33;60.12;99862.19;4455366;32;20141;-93
2021/06/01 06:08:46;;;;;;;3.15;1.75;;;;;;;17.15;60.11;99866.72;4455130;32;20148;-93
2021/06/01 06:11:11;;;;;;;3.85;1.98;;;;;;;17.27;60.12;99866.03;4454825;32;20128;-92
2021/06/01 06:13:37;;;;;;;2.97;2.00;;;;;;;17.52;60.13;99875.12;4454669;32;22689;-93
2021/06/01 06:16:03;;;;;;;6.05;2.58;;;;;;;17.58;60.13;99869.50;4455157;32;20126;-92
2021/06/01 06:18:31;;;;;;;6.00;1.75;;;;;;;17.82;60.14;99868.06;4454870;32;20124;-92
2021/06/01 06:21:00;;;;;;;4.60;1.85;;;;;;;17.90;60.15;99865.81;4467629;32;20158;-92
2021/06/01 06:23:31;;;;;;;3.33;1.73;;;;;;;17.85;60.14;99877.56;4441823;32;20122;-92
2021/06/01 06:25:56;;;;;;;5.62;1.80;;;;;;;17.58;60.13;99878.25;4441982;32;20093;-93
2021/06/01 06:28:22;;;;;;;4.40;1.90;;;;;;;17.89;60.15;99874.66;4455437;32;24902;-92
2021/06/01 06:30:47;;;;;;;4.15;1.60;;;;;;;18.05;60.16;99869.31;4469535;32;20157;-93
2021/06/01 06:33:12;;;;;;;5.18;1.80;;;;;;;18.20;60.16;99878.91;4455607;32;26417;-92
2021/06/01 06:35:38;;;;;;;4.12;2.00;;;;;;;18.09;60.16;99871.69;4468983;32;21647;-93
2021/06/01 06:38:03;;;;;;;3.72;1.80;;;;;;;18.25;60.17;99870.75;4469534;32;20097;-91
2021/06/01 06:40:29;;;;;;;2.70;2.03;;;;;;;18.26;60.17;99875.06;4456276;32;20152;-92
2021/06/01 06:42:54;;;;;;;6.10;1.95;;;;;;;18.33;60.18;99881.66;4469296;32;20122;-92
2021/06/01 06:45:20;;;;;;;6.45;1.80;;;;;;;18.22;60.16;99874.41;4455987;32;20370;-91
2021/06/01 06:50:15;;;;;;;7.28;2.00;;;;;;;17.89;60.15;99872.03;4469527;32;20092;-92
2021/06/01 06:52:41;;;;;;;4.32;1.87;;;;;;;18.08;60.17;99875.25;4443833;32;20151;-92
2021/06/01 06:55:09;;;;;;;6.70;1.92;;;;;;;18.25;60.18;99876.00;4456054;32;20127;-93
2021/06/01 06:57:35;;;;;;;3.62;2.35;;;;;;;18.39;60.18;99874.19;4443973;32;20093;-92
2021/06/01 07:00:06;;;;;;;7.20;1.83;;;;;;;18.54;60.18;99868.94;4456042;32;20152;-91
2021/06/01 07:02:33;;;;;;;5.35;2.10;;;;;;;18.55;60.19;99865.34;4456191;32;20088;-92
2021/06/01 07:04:58;;;;;;;2.70;1.70;;;;;;;18.62;60.20;99856.97;4468721;32;20077;-91
2021/06/01 07:07:23;;;;;;;3.67;1.92;;;;;;;18.64;60.20;99868.28;4468363;32;21098;-90
2021/06/01 07:09:49;;;;;;;8.90;2.12;;;;;;;18.80;60.21;99864.66;4455081;32;26108;-91
2021/06/01 07:12:16;;;;;;;4.03;1.60;;;;;;;18.72;60.20;99857.25;4455066;32;30637;-91
2021/06/01 07:14:49;;;;;;;4.70;1.85;;;;;;;18.63;60.20;99863.94;4456365;32;20077;-91
2021/06/01 07:17:15;;;;;;;5.12;2.10;;;;;;;18.61;60.19;99862.31;4457851;32;20116;-91
2021/06/01 07:19:41;;;;;;;8.02;2.20;;;;;;;18.46;60.18;99858.03;4457185;32;20497;-91
2021/06/01 07:22:06;;;;;;;3.40;1.60;;;;;;;18.80;60.21;99860.25;4456782;32;20108;-89
2021/06/01 07:24:32;;;;;;;5.37;1.40;;;;;;;19.21;60.22;99857.56;4468289;32;24359;-89
2021/06/01 07:26:57;;;;;;;2.95;2.08;;;;;;;19.44;60.24;99853.38;4468522;32;20100;-88
2021/06/01 07:29:22;;;;;;;4.50;1.95;;;;;;;19.63;60.25;99853.84;4468467;32;20147;-87
2021/06/01 07:31:50;;;;;;;3.17;1.40;;;;;;;19.78;60.26;99851.97;4468442;32;20156;-88
2021/06/01 07:34:16;;;;;;;5.22;1.70;;;;;;;20.02;60.27;99852.09;4455876;32;20438;-89
2021/06/01 07:36:41;;;;;;;3.08;1.40;;;;;;;19.79;60.26;99851.03;4455846;32;21072;-88
2021/06/01 07:39:07;;;;;;;3.42;1.37;;;;;;;19.74;60.25;99847.00;4467749;32;20145;-89
2021/06/01 07:41:35;;;;;;;2.08;1.30;;;;;;;19.86;60.27;99847.00;4468194;32;20477;-88
2021/06/01 07:44:03;;;;;;;4.87;1.62;;;;;;;19.86;60.27;99846.16;4468440;32;20123;-87
2021/06/01 07:46:29;;;;;;;3.25;1.67;;;;;;;19.90;60.26;99850.31;4455588;32;20085;-89
2021/06/01 07:48:54;;;;;;;7.25;1.33;;;;;;;19.87;60.26;99850.50;4469554;32;20088;-89
2021/06/01 07:51:28;;;;;;;6.80;1.60;;;;;;;19.93;60.27;99848.28;4468630;32;20476;-91
2021/06/01 07:53:53;;;;;;;2.80;1.50;;;;;;;19.95;60.27;99842.06;4469234;32;20085;-89
2021/06/01 07:56:19;;;;;;;2.53;1.40;;;;;;;20.25;60.29;99850.47;4456033;32;20114;-91
2021/06/01 07:58:47;;;;;;;4.37;1.73;;;;;;;20.31;60.28;99851.84;4455920;32;20176;-91
2021/06/01 08:01:12;;;;;;;4.87;1.42;;;;;;;20.42;60.29;99850.19;4443404;32;20104;-90
2021/06/01 08:03:38;;;;;;;4.50;1.50;;;;;;;20.57;60.31;99850.00;4468607;32;20134;-90
2021/06/01 08:06:03;;;;;;;4.10;1.70;;;;;;;20.48;60.30;99846.25;4468150;32;21832;-90
2021/06/01 08:08:29;;;;;;;2.08;1.55;;;;;;;21.03;60.33;99843.06;4456198;32;20400;-92
2021/06/01 08:10:54;;;;;;;3.58;1.40;;;;;;;21.31;60.34;99843.72;4483764;32;20129;-90
2021/06/01 08:13:20;;;;;;;4.82;1.58;;;;;;;21.38;60.35;99847.59;4471760;32;20065;-89
2021/06/01 08:15:49;;;;;;;5.12;1.60;;;;;;;21.44;60.34;99850.63;4462518;32;20109;-90
2021/06/01 08:18:15;;;;;;;3.17;2.20;;;;;;;21.43;60.35;99848.09;4459518;32;20101;-89
2021/06/01 08:20:52;;;;;;;2.75;1.50;;;;;;;21.31;60.34;99851.66;4456517;32;20101;-89
2021/06/01 08:23:18;;;;;;;1.65;1.27;;;;;;;21.39;60.34;99854.59;4457666;32;20118;-89
2021/06/01 08:25:43;;;;;;;3.20;1.23;;;;;;;21.53;60.35;99841.16;4468631;32;20104;-90
2021/06/01 08:28:08;;;;;;;1.90;1.45;;;;;;;21.37;60.34;99841.47;4456055;32;20196;-90
2021/06/01 08:30:34;;;;;;;6.00;1.70;;;;;;;21.38;60.34;99850.25;4456150;32;20444;-89
2021/06/01 08:32:59;;;;;;;2.90;1.40;;;;;;;21.44;60.35;99853.25;4468321;32;20639;-91
2021/06/01 08:35:25;;;;;;;2.20;1.15;;;;;;;21.37;60.34;99851.22;4454950;32;26995;-91
2021/06/01 08:37:50;;;;;;;4.12;1.45;;;;;;;21.43;60.35;99842.78;4455374;32;20160;-89
2021/06/01 08:40:16;;;;;;;3.22;1.20;;;;;;;21.66;60.36;99847.19;4454334;32;20121;-90
2021/06/01 08:42:41;;;;;;;2.92;1.45;;;;;;;21.80;60.37;99843.50;4454081;32;21027;-90
2021/06/01 08:45:08;;;;;;;2.87;1.20;;;;;;;21.92;60.37;99847.00;4454581;32;20105;-89
2021/06/01 08:47:33;;;;;;;4.97;1.45;;;;;;;21.76;60.36;99856.09;4455019;32;20494;-92
2021/06/01 08:50:01;;;;;;;3.15;1.33;;;;;;;21.55;60.35;99848.97;4453702;32;20154;-89
2021/06/01 08:52:27;;;;;;;2.67;1.30;;;;;;;21.54;60.35;99855.25;4454714;32;20088;-91
2021/06/01 08:54:54;;;;;;;2.20;1.25;;;;;;;21.48;60.34;99866.28;4457186;32;20113;-92
2021/06/01 08:57:19;;;;;;;1.45;1.10;;;;;;;21.51;60.36;99858.09;4443961;32;20445;-90
2021/06/01 08:59:45;;;;;;;6.28;1.42;;;;;;;21.40;60.34;99850.97;4454631;32;20127;-92
2021/06/01 09:02:10;;;;;;;2.95;1.35;;;;;;;21.51;60.36;99853.63;4453947;32;20567;-92
2021/06/01 09:05:01;;;;;;;2.25;1.48;;;;;;;21.61;60.36;99854.66;4454130;32;20092;-90
2021/06/01 09:10:24;;;;;;;2.95;1.20;;;;;;;22.01;60.38;99849.78;4467048;32;20151;-93
2021/06/01 09:21:12;;;;;;;5.22;1.40;;;;;;;22.62;60.41;99825.53;4466845;32;20150;-95
2021/06/01 09:23:52;;;;;;;4.15;1.67;;;;;;;22.65;60.42;99834.09;4468407;32;20111;-90
2021/06/01 09:26:37;;;;;;;2.22;1.55;;;;;;;22.43;60.41;99835.94;4455433;32;20150;-91
2021/06/01 09:29:02;;;;;;;2.33;1.42;;;;;;;22.35;60.41;99828.59;4462520;32;20441;-94
2021/06/01 09:31:28;;;;;;;2.37;1.35;;;;;;;22.61;60.41;99837.97;4453600;32;25508;-89
2021/06/01 09:33:53;;;;;;;3.67;1.62;;;;;;;23.03;60.43;99831.97;4453913;32;20136;-89
2021/06/01 09:36:22;;;;;;;3.50;1.58;;;;;;;23.44;60.46;99825.91;4454453;32;20087;-90
2021/06/01 09:38:48;;;;;;;5.35;1.48;;;;;;;23.14;60.44;99826.63;4454323;32;20523;-87
2021/06/01 09:41:16;;;;;;;2.35;1.65;;;;;;;22.93;60.43;99819.44;4454101;32;20105;-88
2021/06/01 09:43:52;;;;;;;1.92;1.20;;;;;;;22.92;60.43;99822.22;4454375;32;20085;-87
2021/06/01 09:46:22;;;;;;;4.87;1.48;;;;;;;22.94;60.43;99822.94;4454281;32;20118;-87
2021/06/01 09:48:48;;;;;;;2.92;1.95;;;;;;;23.14;60.45;99822.16;4454481;32;20101;-89
2021/06/01 09:51:25;;;;;;;1.67;1.40;;;;;;;22.82;60.43;99823.97;4454137;32;20428;-87
2021/06/01 09:53:53;;;;;;;3.33;1.90;;;;;;;22.82;60.43;99821.31;4441535;32;20097;-90
2021/06/01 09:56:19;;;;;;;2.83;1.45;;;;;;;22.56;60.42;99816.28;4455505;32;20113;-90
2021/06/01 09:58:45;;;;;;;3.78;1.55;;;;;;;22.29;60.40;99818.50;4468600;32;20917;-89
2021/06/01 10:01:10;;;;;;;3.42;1.50;;;;;;;22.22;60.40;99831.38;4455521;32;20104;-89
2021/06/01 10:03:48;;;;;;;5.25;1.50;;;;;;;22.05;60.39;99830.06;4468982;32;20498;-89
2021/06/01 10:06:14;;;;;;;3.20;1.95;;;;;;;21.63;60.37;99831.53;4443397;32;20092;-89
2021/06/01 10:08:54;;;;;;;7.93;1.70;;;;;;;21.45;60.36;99827.63;4455667;32;20139;-89
2021/06/01 10:11:19;;;;;;;3.15;1.45;;;;;;;21.46;60.36;99831.97;4456357;32;20210;-88
2021/06/01 10:13:45;;;;;;;3.45;1.65;;;;;;;21.41;60.36;99837.62;4455167;32;22995;-88
2021/06/01 10:16:13;;;;;;;4.70;2.37;;;;;;;21.34;60.35;99843.50;4455449;32;20465;-89
2021/06/01 10:18:42;;;;;;;4.55;1.60;;;;;;;21.16;60.34;99845.66;4442666;32;20164;-89
2021/06/01 10:21:09;;;;;;;4.25;1.95;;;;;;;21.22;60.34;99837.25;4456331;32;20174;-89
2021/06/01 10:23:39;;;;;;;4.18;2.00;;;;;;;21.23;60.36;99838.94;4455613;32;21030;-89
2021/06/01 10:26:05;;;;;;;;;;;;;;;21.19;60.35;99839.31;4470229;32;20119;-90
2021/06/01 10:28:35;;;;;;;3.50;1.95;;;;;;;21.16;60.34;99837.72;4455690;32;19987;-90
2021/06/01 10:31:01;;;;;;;4.43;2.05;;;;;;;21.31;60.35;99841.94;4455915;32;20377;-88
2021/06/01 10:33:49;;;;;;;3.70;1.73;;;;;;;21.29;60.35;99842.97;4456324;32;20161;-87
2021/06/01 10:53:34;;;;;;;2.47;1.83;;;;;;;21.13;60.34;99835.31;4485089;32;20090;-92
2021/06/01 10:56:02;;;;;;;5.53;1.55;;;;;;;21.62;60.38;99842.25;4476027;32;20053;-88
2021/06/01 10:58:42;;;;;;;3.42;1.58;;;;;;;21.85;60.38;99829.88;4459613;32;20171;-89
2021/06/01 11:04:24;;;;;;;4.25;1.60;;;;;;;22.18;60.40;99827.28;4469772;32;20165;-89
2021/06/01 11:06:52;;;;;;;5.05;1.50;;;;;;;22.27;60.41;99829.22;4456546;32;20438;-88
2021/06/01 11:09:33;;;;;;;5.03;1.45;;;;;;;22.26;60.41;99830.19;4468141;32;20112;-88
2021/06/01 11:12:26;;;;;;;2.85;1.75;;;;;;;22.34;60.41;99827.75;4469612;32;20089;-89
2021/06/01 11:14:58;;;;;;;5.32;1.40;;;;;;;22.44;60.41;99821.69;4461282;32;20109;-87
2021/06/01 11:17:36;;;;;;;3.30;1.35;;;;;;;22.46;60.41;99815.31;4468275;32;20461;-89
2021/06/01 11:33:20;;;;;;;4.07;1.80;;;;;;;23.02;60.44;99807.25;4457250;32;20156;-90
2021/06/01 11:36:04;;;;;;;2.72;1.40;;;;;;;23.19;60.46;99800.53;4468108;32;20112;-89
2021/06/01 11:38:56;;;;;;;2.33;1.40;;;;;;;23.19;60.46;99803.19;4456582;32;20161;-89
2021/06/01 11:44:19;;;;;;;2.22;1.30;;;;;;;23.67;60.48;99800.06;4458038;32;20104;-89
2021/06/01 11:46:51;;;;;;;2.22;1.50;;;;;;;23.67;60.48;99800.91;4455271;32;20136;-88
2021/06/01 11:52:11;;;;;;;1.95;1.35;;;;;;;23.61;60.47;99798.75;4439487;32;20113;-88
2021/06/01 11:54:37;;;;;;;3.50;1.45;;;;;;;23.65;60.47;99807.28;4454324;32;24448;-88
2021/06/01 11:57:15;;;;;;;3.33;1.33;;;;;;;23.50;60.46;99804.09;4454994;32;20203;-89
2021/06/01 12:02:53;;;;;;;3.78;1.70;;;;;;;23.63;60.48;99795.94;4468170;32;20119;-89
2021/06/01 12:13:51;;;;;;;6.03;1.40;;;;;;;23.40;60.46;99801.38;4457104;32;20134;-88
2021/06/01 12:19:06;;;;;;;3.03;1.65;;;;;;;23.43;60.47;99806.44;4457113;32;20177;-90
2021/06/01 12:21:38;;;;;;;6.25;1.77;;;;;;;23.51;60.47;99811.94;4455047;32;20096;-88
2021/06/01 12:24:15;;;;;;;10.98;1.85;;;;;;;23.21;60.46;99819.84;4467801;32;20096;-89
2021/06/01 12:26:55;;;;;;;3.10;1.77;;;;;;;23.02;60.44;99811.72;4455831;32;20184;-88
2021/06/01 12:32:14;;;;;;;3.90;1.70;;;;;;;22.86;60.44;99812.13;4467711;32;20268;-89
2021/06/01 12:43:59;;;;;;;2.22;1.60;;;;;;;23.17;60.45;99800.66;4457586;32;20145;-88
2021/06/01 12:46:45;;;;;;;5.37;1.62;;;;;;;23.31;60.46;99796.00;4458404;32;20575;-88
2021/06/01 13:19:15;;;;;;;2.70;1.35;;;;;;;23.28;60.46;99782.00;4468207;32;20130;-88
2021/06/01 13:39:28;;;;;;;4.37;1.42;;;;;;;24.75;60.54;99767.38;4468667;32;20093;-88
2021/06/01 13:47:12;;;;;;;3.67;1.10;;;;;;;24.82;60.53;99759.69;4467579;32;20123;-88
2021/06/01 13:49:50;;;;;;;2.08;1.10;;;;;;;24.88;60.54;99751.16;4466675;32;20488;-87
2021/06/01 14:21:24;;;;;;;1.98;1.23;;;;;;;24.70;60.54;99753.66;4466432;32;20093;-90
2021/06/01 14:29:49;;;;;;;3.60;1.17;;;;;;;24.26;60.51;99757.63;4455882;32;20123;-90
2021/06/01 15:29:08;;;;;;;2.10;1.23;;;;;;;24.01;60.50;99752.78;4468465;32;20197;-89